Time;durP1;ratioP1;P1;durP2;ratioP2;P2;SDS_P1;SDS_P2;PMS_P1;PMS_P2;Temp;Humidity;BMP_temperature;BMP_pressure;BME280_temperature;BME280_humidity;BME280_pressure;Samples;Min_cycle;Max_cycle;Signal;HPM_P1;HPM_P2
2021/09/24 00:00:29;;;;;;;6.55;4.75;;;;;;;8.87;68.03;97667.19;1754722;80;21043;-83
2021/09/24 00:02:57;;;;;;;6.92;4.78;;;;;;;8.92;68.11;97664.84;1753248;81;20994;-83
2021/09/24 00:05:24;;;;;;;5.85;4.33;;;;;;;8.95;68.17;97662.56;1753481;81;21054;-83
2021/09/24 00:07:50;;;;;;;6.33;4.45;;;;;;;8.99;68.10;97654.97;1758350;81;21342;-83
2021/09/24 00:10:19;;;;;;;6.22;4.35;;;;;;;9.03;68.47;97661.91;1779387;81;21036;-83
2021/09/24 00:12:47;;;;;;;5.80;4.45;;;;;;;9.04;68.78;97654.82;1779388;80;21351;-83
2021/09/24 00:15:17;;;;;;;5.37;4.35;;;;;;;9.03;68.46;97649.12;1777360;81;20980;-83
2021/09/24 00:17:44;;;;;;;6.15;4.95;;;;;;;9.01;68.56;97642.56;1779489;80;20976;-83
2021/09/24 00:20:13;;;;;;;6.58;4.62;;;;;;;9.01;68.65;97629.82;1779455;81;21028;-83
2021/09/24 00:22:40;;;;;;;5.92;4.83;;;;;;;9.01;68.76;97618.77;1779333;80;21032;-83
2021/09/24 00:25:10;;;;;;;10.03;4.92;;;;;;;9.01;68.82;97617.45;1763676;81;21042;-83
2021/09/24 00:27:37;;;;;;;6.05;4.30;;;;;;;8.97;68.77;97611.88;1745033;82;21002;-83
2021/09/24 00:30:07;;;;;;;11.20;4.97;;;;;;;8.96;68.99;97619.36;1751080;81;20955;-83
2021/09/24 00:32:33;;;;;;;8.08;4.78;;;;;;;8.94;69.09;97613.27;1744997;81;21411;-83
2021/09/24 00:35:00;;;;;;;7.10;4.62;;;;;;;8.92;69.07;97611.98;1753122;81;20956;-83
2021/09/24 00:37:27;;;;;;;8.00;4.45;;;;;;;8.90;69.02;97609.86;1765080;80;21444;-82
2021/09/24 00:39:53;;;;;;;7.22;4.85;;;;;;;8.91;68.99;97604.09;1765178;81;20969;-82
2021/09/24 00:42:20;;;;;;;7.15;4.90;;;;;;;8.93;68.85;97594.36;1765303;80;21032;-82
2021/09/24 00:44:49;;;;;;;6.80;4.45;;;;;;;8.97;68.76;97585.44;1758991;80;21420;-82
2021/09/24 00:47:19;;;;;;;7.03;4.67;;;;;;;9.01;68.69;97587.53;1744821;82;21416;-83
2021/09/24 00:49:49;;;;;;;8.00;4.28;;;;;;;9.01;68.75;97588.38;1747085;81;21005;-83
2021/09/24 00:52:18;;;;;;;6.40;4.95;;;;;;;9.03;68.64;97586.56;1745265;82;21034;-82
2021/09/24 00:54:48;;;;;;;8.85;5.10;;;;;;;9.04;68.86;97575.08;1750961;80;21000;-82
2021/09/24 00:57:16;;;;;;;6.83;4.40;;;;;;;9.05;68.74;97568.03;1765445;81;21067;-83
2021/09/24 00:59:42;;;;;;;8.40;4.65;;;;;;;9.04;68.86;97568.47;1765794;81;21031;-82
2021/09/24 01:02:09;;;;;;;5.15;4.20;;;;;;;9.06;68.91;97557.86;1765323;81;20972;-82
2021/09/24 01:04:36;;;;;;;5.15;4.20;;;;;;;9.05;68.85;97546.40;1761204;81;20978;-83
2021/09/24 01:07:04;;;;;;;6.47;4.75;;;;;;;9.05;69.17;97545.55;1744814;82;21483;-82
2021/09/24 01:09:31;;;;;;;7.55;4.17;;;;;;;9.03;69.13;97537.67;1744925;82;21447;-83
2021/09/24 01:11:57;;;;;;;5.67;4.83;;;;;;;9.00;69.31;97524.53;1744686;82;20998;-82
2021/09/24 01:14:29;;;;;;;7.08;5.70;;;;;;;8.95;70.16;97521.17;1760961;81;20972;-82
2021/09/24 01:16:57;;;;;;;5.95;4.50;;;;;;;8.94;69.79;97521.64;1765321;81;21008;-83
2021/09/24 01:19:24;;;;;;;6.35;4.55;;;;;;;8.92;70.09;97512.00;1763392;81;21035;-82
2021/09/24 01:21:51;;;;;;;7.42;4.58;;;;;;;8.91;69.87;97498.38;1753149;81;21095;-82
2021/09/24 01:24:18;;;;;;;11.35;4.90;;;;;;;8.88;69.80;97491.42;1765183;81;21030;-82
2021/09/24 01:26:52;;;;;;;6.40;4.85;;;;;;;8.85;70.13;97481.81;1778484;81;21537;-82
2021/09/24 01:29:21;;;;;;;7.37;5.28;;;;;;;8.84;69.96;97472.16;1779466;81;20993;-82
2021/09/24 01:31:48;;;;;;;7.37;4.87;;;;;;;8.82;70.03;97471.36;1769461;81;21439;-82
2021/09/24 01:34:16;;;;;;;6.33;4.95;;;;;;;8.83;69.88;97464.27;1752940;82;21062;-82
2021/09/24 01:36:42;;;;;;;6.25;4.50;;;;;;;8.82;70.05;97465.19;1753235;82;21042;-82
2021/09/24 01:39:11;;;;;;;5.67;4.58;;;;;;;8.79;70.04;97463.52;1753404;81;21589;-82
2021/09/24 01:41:46;;;;;;;6.05;4.53;;;;;;;8.78;70.05;97467.07;1760853;81;20957;-82
2021/09/24 01:44:13;;;;;;;6.35;4.78;;;;;;;8.77;70.08;97463.16;1779418;80;20989;-82
2021/09/24 01:46:43;;;;;;;5.72;4.53;;;;;;;8.79;70.51;97458.67;1779059;81;21035;-82
2021/09/24 01:49:11;;;;;;;7.42;5.17;;;;;;;8.80;70.16;97455.14;1779117;80;20993;-82
2021/09/24 01:51:40;;;;;;;7.25;4.90;;;;;;;8.82;70.33;97461.23;1775469;80;20998;-82
2021/09/24 01:54:07;;;;;;;7.60;4.30;;;;;;;8.87;70.52;97462.39;1753173;81;21014;-83
2021/09/24 01:56:35;;;;;;;5.47;3.95;;;;;;;8.88;70.73;97480.84;1753277;82;21037;-82
2021/09/24 01:59:02;;;;;;;10.70;4.20;;;;;;;8.93;70.37;97486.85;1753257;82;21037;-83
2021/09/24 02:01:28;;;;;;;8.40;4.62;;;;;;;8.99;70.37;97479.20;1758197;81;20941;-82
2021/09/24 02:03:55;;;;;;;8.95;4.47;;;;;;;9.06;70.37;97482.04;1779218;80;21083;-83
2021/09/24 02:06:21;;;;;;;10.40;4.60;;;;;;;9.10;71.08;97482.83;1779162;80;21406;-82
2021/09/24 02:08:47;;;;;;;9.70;4.35;;;;;;;9.06;71.13;97472.79;1774135;80;21021;-83
2021/09/24 02:11:14;;;;;;;18.65;5.40;;;;;;;9.03;71.36;97476.88;1753282;82;21353;-83
2021/09/24 02:13:42;;;;;;;7.97;4.15;;;;;;;8.97;71.62;97471.79;1753287;82;21029;-83
2021/09/24 02:16:10;;;;;;;9.60;5.10;;;;;;;8.90;71.79;97479.48;1753174;82;21025;-82
2021/09/24 02:18:40;;;;;;;18.10;7.03;;;;;;;8.78;72.06;97474.12;1758024;81;20980;-82
2021/09/24 02:21:09;;;;;;;7.72;4.47;;;;;;;8.65;72.30;97482.44;1782660;80;20975;-82
2021/09/24 02:23:36;;;;;;;6.75;4.70;;;;;;;8.56;72.37;97478.27;1784076;80;21388;-83
2021/09/24 02:26:05;;;;;;;8.03;5.10;;;;;;;8.45;73.22;97464.05;1779283;79;21464;-82
2021/09/24 02:28:33;;;;;;;7.83;5.05;;;;;;;8.41;73.21;97457.57;1749564;81;21404;-83
2021/09/24 02:31:01;;;;;;;11.53;5.35;;;;;;;8.35;73.10;97463.05;1744746;82;21530;-83
2021/09/24 02:33:28;;;;;;;8.40;5.10;;;;;;;8.24;72.68;97453.66;1744739;82;21435;-82
2021/09/24 02:35:54;;;;;;;14.18;6.10;;;;;;;8.13;73.17;97443.41;1744774;82;20982;-82
2021/09/24 02:38:21;;;;;;;9.43;5.15;;;;;;;8.03;73.21;97436.66;1759789;81;21489;-82
2021/09/24 02:40:47;;;;;;;11.12;5.15;;;;;;;7.92;73.28;97446.19;1765335;81;21000;-83
2021/09/24 02:43:14;;;;;;;8.88;6.00;;;;;;;7.81;73.40;97439.91;1765012;81;21051;-82
2021/09/24 02:45:40;;;;;;;8.80;6.03;;;;;;;7.70;74.13;97454.70;1765097;81;21035;-82
2021/09/24 02:48:06;;;;;;;10.80;5.08;;;;;;;7.61;74.01;97465.48;1751913;81;21022;-83
2021/09/24 02:50:33;;;;;;;11.83;6.03;;;;;;;7.53;74.81;97463.91;1760851;81;21385;-82
2021/09/24 02:52:59;;;;;;;10.58;6.87;;;;;;;7.46;74.53;97472.01;1775143;81;21038;-83
2021/09/24 02:55:26;;;;;;;11.43;5.53;;;;;;;7.37;74.74;97472.68;1775503;81;21018;-82
2021/09/24 02:57:53;;;;;;;7.85;5.83;;;;;;;7.29;74.41;97473.75;1769608;81;20989;-83
2021/09/24 03:00:19;;;;;;;9.28;5.83;;;;;;;7.22;74.97;97478.30;1765189;81;20981;-82
2021/09/24 03:02:46;;;;;;;10.50;5.67;;;;;;;7.15;75.58;97464.88;1765065;81;21437;-82
2021/09/24 03:05:12;;;;;;;8.20;6.08;;;;;;;7.08;75.26;97450.98;1765060;81;20976;-82
2021/09/24 03:07:39;;;;;;;9.68;5.83;;;;;;;7.03;75.53;97464.72;1756811;81;20987;-82
2021/09/24 03:10:08;;;;;;;9.25;5.72;;;;;;;6.93;75.67;97467.56;1744900;82;21018;-82
2021/09/24 03:12:34;;;;;;;9.18;5.55;;;;;;;6.90;75.81;97466.78;1744734;82;21113;-82
2021/09/24 03:15:02;;;;;;;12.13;5.90;;;;;;;6.86;76.24;97452.82;1744945;82;20996;-82
2021/09/24 03:17:29;;;;;;;11.90;6.00;;;;;;;6.79;77.78;97443.31;1744703;82;21025;-82
2021/09/24 03:19:55;;;;;;;8.68;6.00;;;;;;;6.75;76.73;97441.21;1754863;81;21495;-83
2021/09/24 03:22:22;;;;;;;8.60;6.05;;;;;;;6.72;76.66;97438.64;1775454;81;20975;-83
2021/09/24 03:24:49;;;;;;;9.53;6.05;;;;;;;6.68;76.56;97451.02;1775188;81;21015;-82
2021/09/24 03:27:15;;;;;;;11.73;6.87;;;;;;;6.63;77.32;97448.06;1777857;80;21471;-82
2021/09/24 03:29:42;;;;;;;12.13;6.50;;;;;;;6.56;77.24;97447.36;1765171;81;21032;-83
2021/09/24 03:32:09;;;;;;;13.70;6.55;;;;;;;6.53;77.76;97452.24;1750689;82;21437;-82
2021/09/24 03:34:35;;;;;;;13.65;6.92;;;;;;;6.51;77.56;97447.91;1756993;81;21020;-83
2021/09/24 03:37:02;;;;;;;14.33;7.03;;;;;;;6.49;77.32;97446.63;1757074;82;21024;-83
2021/09/24 03:39:29;;;;;;;11.85;6.75;;;;;;;6.45;77.55;97443.63;1740934;81;20994;-83
2021/09/24 03:41:55;;;;;;;14.30;7.10;;;;;;;6.41;77.52;97438.02;1739505;82;21428;-82
2021/09/24 03:44:24;;;;;;;12.93;6.97;;;;;;;6.36;79.17;97438.56;1739497;82;20982;-83
2021/09/24 03:46:50;;;;;;;11.03;7.72;;;;;;;6.30;78.79;97432.97;1739414;82;21453;-83
2021/09/24 03:49:17;;;;;;;12.82;7.12;;;;;;;6.27;78.85;97422.53;1739403;81;21038;-82
2021/09/24 03:51:43;;;;;;;13.30;7.90;;;;;;;6.23;79.28;97425.66;1768838;81;21019;-82
2021/09/24 03:54:10;;;;;;;19.98;8.78;;;;;;;6.17;78.33;97424.48;1778697;81;21030;-83
2021/09/24 03:56:37;;;;;;;15.93;8.45;;;;;;;6.11;78.65;97421.98;1778729;80;21081;-83
2021/09/24 03:59:04;;;;;;;14.40;8.45;;;;;;;6.07;78.88;97423.83;1778467;81;20986;-84
2021/09/24 04:01:30;;;;;;;13.85;8.75;;;;;;;6.05;79.86;97424.28;1777421;80;21361;-84
2021/09/24 04:03:57;;;;;;;18.25;9.73;;;;;;;5.97;81.10;97413.05;1747837;82;20974;-84
2021/09/24 04:06:23;;;;;;;13.88;9.03;;;;;;;5.93;80.57;97413.09;1747969;82;21014;-83
2021/09/24 04:08:50;;;;;;;16.02;10.28;;;;;;;5.90;80.68;97402.63;1747810;82;21463;-83
2021/09/24 04:11:16;;;;;;;15.83;9.60;;;;;;;5.90;79.91;97384.69;1770273;80;20991;-84
2021/09/24 04:13:42;;;;;;;22.15;9.83;;;;;;;5.85;80.44;97388.70;1757028;82;20976;-83
2021/09/24 04:16:09;;;;;;;21.68;10.53;;;;;;;5.81;80.01;97391.85;1757199;81;21363;-83
2021/09/24 04:18:35;;;;;;;18.12;10.65;;;;;;;5.83;80.24;97380.43;1757265;81;21004;-83
2021/09/24 04:21:02;;;;;;;16.20;9.90;;;;;;;5.85;81.00;97386.55;1763931;81;21038;-83
2021/09/24 04:23:29;;;;;;;17.25;10.32;;;;;;;5.86;81.02;97383.01;1778478;81;20990;-83
2021/09/24 04:25:55;;;;;;;19.52;10.20;;;;;;;5.89;81.17;97375.03;1778798;81;21416;-83
2021/09/24 04:28:22;;;;;;;17.37;9.70;;;;;;;5.96;81.22;97375.34;1766506;81;21006;-83
2021/09/24 04:30:49;;;;;;;17.52;9.38;;;;;;;5.98;81.49;97368.27;1747989;82;21013;-83
2021/09/24 04:33:15;;;;;;;15.72;10.08;;;;;;;6.02;81.90;97365.15;1722502;82;21462;-83
2021/09/24 04:35:42;;;;;;;17.70;9.73;;;;;;;6.06;81.88;97354.98;1753188;81;21021;-83
2021/09/24 04:38:09;;;;;;;18.57;10.00;;;;;;;6.10;81.68;97349.23;1760655;80;20936;-83
2021/09/24 04:40:35;;;;;;;18.35;9.53;;;;;;;6.13;81.92;97353.09;1781846;80;21012;-83
2021/09/24 04:43:02;;;;;;;18.00;10.35;;;;;;;6.18;81.92;97356.05;1757052;82;21453;-83
2021/09/24 04:45:29;;;;;;;17.45;9.68;;;;;;;6.23;82.20;97344.09;1757228;82;20961;-83
2021/09/24 04:47:55;;;;;;;13.88;9.30;;;;;;;6.28;82.01;97338.73;1757230;81;20989;-83
2021/09/24 04:50:22;;;;;;;15.58;9.80;;;;;;;6.29;82.25;97333.44;1747699;81;21010;-83
2021/09/24 04:52:48;;;;;;;20.70;11.38;;;;;;;6.28;82.36;97326.89;1757632;81;21412;-83
2021/09/24 04:55:15;;;;;;;19.32;11.28;;;;;;;6.26;82.65;97329.55;1778620;81;21058;-83
2021/09/24 04:57:41;;;;;;;20.88;11.15;;;;;;;6.27;82.76;97318.13;1778351;81;21069;-83
2021/09/24 05:00:11;;;;;;;21.93;12.18;;;;;;;6.31;82.98;97321.57;1778605;80;21432;-83
2021/09/24 05:02:39;;;;;;;22.32;12.90;;;;;;;6.33;82.83;97322.39;1762787;81;20986;-84
2021/09/24 05:05:08;;;;;;;24.10;11.73;;;;;;;6.36;82.39;97326.71;1752991;81;20974;-83
2021/09/24 05:07:36;;;;;;;20.92;11.83;;;;;;;6.39;82.92;97326.66;1753000;82;20987;-83
2021/09/24 05:10:05;;;;;;;20.97;11.73;;;;;;;6.40;83.18;97332.33;1736474;83;20995;-84
2021/09/24 05:12:32;;;;;;;21.20;12.43;;;;;;;6.42;82.96;97337.09;1753382;82;21446;-84
2021/09/24 05:14:59;;;;;;;19.35;12.43;;;;;;;6.45;83.77;97338.34;1768690;80;21023;-83
2021/09/24 05:17:25;;;;;;;22.07;11.83;;;;;;;6.47;83.00;97336.09;1781659;80;21015;-83
2021/09/24 05:19:52;;;;;;;19.27;12.13;;;;;;;6.52;82.74;97340.38;1773671;80;21412;-83
2021/09/24 05:22:19;;;;;;;20.12;12.93;;;;;;;6.57;82.94;97336.72;1746696;82;20998;-84
2021/09/24 05:24:46;;;;;;;19.02;12.40;;;;;;;6.62;83.12;97338.38;1753061;81;21028;-84
2021/09/24 05:27:12;;;;;;;19.00;11.53;;;;;;;6.65;83.00;97330.42;1749116;81;21024;-83
2021/09/24 05:29:38;;;;;;;20.05;12.82;;;;;;;6.68;82.93;97324.62;1748605;82;20983;-83
2021/09/24 05:32:06;;;;;;;19.02;12.80;;;;;;;6.71;83.09;97315.77;1771940;80;21123;-83
2021/09/24 05:34:32;;;;;;;24.23;14.43;;;;;;;6.74;82.57;97309.13;1761491;80;21032;-83
2021/09/24 05:36:58;;;;;;;30.80;14.70;;;;;;;6.77;83.38;97322.20;1762058;81;21489;-84
2021/09/24 05:39:25;;;;;;;23.77;14.33;;;;;;;6.80;83.39;97318.62;1761905;81;21060;-83
2021/09/24 05:41:51;;;;;;;21.48;13.03;;;;;;;6.82;82.46;97308.45;1761963;81;21024;-83
2021/09/24 05:44:18;;;;;;;20.97;13.22;;;;;;;6.84;82.31;97300.08;1759473;80;21638;-83
2021/09/24 05:46:45;;;;;;;22.85;13.78;;;;;;;6.88;82.00;97300.86;1753028;82;21044;-83
2021/09/24 05:49:11;;;;;;;23.67;13.53;;;;;;;6.89;81.90;97294.68;1758082;80;20971;-84
2021/09/24 05:51:38;;;;;;;28.00;17.07;;;;;;;6.94;82.38;97298.53;1777326;81;20971;-84
2021/09/24 05:54:07;;;;;;;23.90;14.33;;;;;;;6.96;82.08;97301.53;1753383;82;21015;-84
2021/09/24 05:56:34;;;;;;;21.85;13.10;;;;;;;7.03;82.44;97306.20;1769700;81;20959;-84
2021/09/24 05:59:01;;;;;;;18.15;12.35;;;;;;;7.10;82.33;97306.42;1753347;81;21434;-84
2021/09/24 06:01:27;;;;;;;20.70;12.85;;;;;;;7.18;82.08;97303.58;1753336;82;20963;-83
2021/09/24 06:03:54;;;;;;;22.13;12.35;;;;;;;7.24;81.92;97302.13;1746846;82;21002;-83
2021/09/24 06:06:21;;;;;;;20.05;12.37;;;;;;;7.29;81.74;97299.34;1754368;82;20973;-83
2021/09/24 06:08:50;;;;;;;19.87;12.40;;;;;;;7.34;82.23;97298.77;1759854;81;21469;-83
2021/09/24 06:11:19;;;;;;;23.80;14.25;;;;;;;7.39;81.73;97284.12;1779327;81;20968;-83
2021/09/24 06:13:46;;;;;;;21.42;14.30;;;;;;;7.45;81.62;97272.11;1778877;81;21039;-83
2021/09/24 06:16:13;;;;;;;21.57;12.82;;;;;;;7.52;81.29;97267.52;1779296;80;20964;-83
2021/09/24 06:18:40;;;;;;;19.82;12.73;;;;;;;7.57;81.31;97264.73;1757429;80;21392;-82
2021/09/24 06:21:07;;;;;;;19.35;12.85;;;;;;;7.65;81.25;97271.51;1771330;81;20971;-84
2021/09/24 06:23:34;;;;;;;23.25;12.58;;;;;;;7.71;81.08;97274.88;1753193;80;21017;-83
2021/09/24 06:26:01;;;;;;;22.13;12.78;;;;;;;7.83;80.71;97275.84;1746464;82;21002;-82
2021/09/24 06:28:28;;;;;;;22.70;13.03;;;;;;;7.93;80.58;97261.89;1773728;80;20961;-82
2021/09/24 06:30:57;;;;;;;25.88;12.58;;;;;;;8.04;80.33;97274.32;1757100;81;21028;-83
2021/09/24 06:33:25;;;;;;;23.45;13.30;;;;;;;8.12;80.52;97266.16;1756979;82;21009;-83
2021/09/24 06:35:52;;;;;;;19.77;13.00;;;;;;;8.25;80.00;97260.03;1750891;81;21029;-83
2021/09/24 06:38:18;;;;;;;21.35;14.23;;;;;;;8.33;79.39;97254.50;1753386;82;21009;-83
2021/09/24 06:40:45;;;;;;;22.55;14.20;;;;;;;8.42;79.26;97242.77;1753054;82;21038;-83
2021/09/24 06:43:12;;;;;;;23.42;14.73;;;;;;;8.50;79.22;97235.47;1736553;83;21010;-83
2021/09/24 06:45:38;;;;;;;28.35;19.60;;;;;;;8.61;79.21;97242.19;1759457;80;20971;-83
2021/09/24 06:48:05;;;;;;;27.55;16.12;;;;;;;8.68;78.70;97238.45;1757286;82;21020;-83
2021/09/24 06:50:34;;;;;;;39.53;24.05;;;;;;;8.74;78.33;97225.46;1744020;81;20944;-83
2021/09/24 06:53:01;;;;;;;22.00;14.55;;;;;;;8.79;78.46;97214.27;1739452;82;21511;-83
2021/09/24 06:55:28;;;;;;;25.72;13.20;;;;;;;8.87;78.30;97210.03;1753129;82;20989;-83
2021/09/24 06:57:57;;;;;;;17.35;11.38;;;;;;;8.94;78.06;97215.08;1753227;80;21027;-82
2021/09/24 07:00:24;;;;;;;17.37;11.45;;;;;;;9.01;77.71;97214.38;1747743;81;21026;-83
2021/09/24 07:02:51;;;;;;;16.65;11.05;;;;;;;9.08;77.33;97210.61;1750815;81;21015;-83
2021/09/24 07:05:18;;;;;;;17.57;11.68;;;;;;;9.19;77.43;97208.03;1757121;82;21040;-83
2021/09/24 07:07:45;;;;;;;20.25;11.50;;;;;;;9.30;77.47;97205.84;1757236;81;20997;-83
2021/09/24 07:10:12;;;;;;;15.53;10.10;;;;;;;9.43;77.37;97206.23;1756883;81;22146;-82
2021/09/24 07:12:41;;;;;;;17.12;9.98;;;;;;;9.57;77.01;97205.73;1740320;81;21010;-83
2021/09/24 07:15:10;;;;;;;16.73;9.33;;;;;;;9.70;76.43;97195.54;1739403;82;21050;-83
2021/09/24 07:17:37;;;;;;;16.55;10.40;;;;;;;9.83;76.14;97188.42;1739455;82;20998;-83
2021/09/24 07:20:06;;;;;;;17.20;10.25;;;;;;;9.97;75.94;97189.22;1771897;80;20973;-83
2021/09/24 07:22:33;;;;;;;15.13;9.38;;;;;;;10.16;75.71;97188.00;1750925;81;21030;-83
2021/09/24 07:25:00;;;;;;;13.03;9.28;;;;;;;10.34;75.50;97177.09;1746773;82;20999;-83
2021/09/24 07:27:26;;;;;;;14.28;9.20;;;;;;;10.51;73.89;97179.55;1741644;81;21022;-83
2021/09/24 07:29:54;;;;;;;14.63;9.63;;;;;;;10.70;75.07;97176.95;1737611;82;20999;-83
2021/09/24 07:32:21;;;;;;;16.57;10.58;;;;;;;10.88;74.81;97172.64;1737535;83;21023;-83
2021/09/24 07:34:47;;;;;;;15.60;9.08;;;;;;;11.05;74.61;97166.58;1749116;82;20953;-83
2021/09/24 07:37:14;;;;;;;15.10;9.20;;;;;;;11.22;73.09;97169.80;1750003;81;20953;-83
2021/09/24 07:39:41;;;;;;;13.13;9.10;;;;;;;11.37;73.37;97163.39;1748583;82;21008;-83
2021/09/24 07:42:08;;;;;;;12.88;8.40;;;;;;;11.51;73.55;97168.53;1744215;82;21022;-83
2021/09/24 07:44:34;;;;;;;13.20;8.23;;;;;;;11.61;73.02;97156.55;1737548;83;21436;-83
2021/09/24 07:47:01;;;;;;;18.10;11.48;;;;;;;11.68;72.87;97156.67;1737862;82;21074;-83
2021/09/24 07:49:27;;;;;;;24.45;15.55;;;;;;;11.77;72.60;97166.44;1768340;80;21005;-83
2021/09/24 07:51:54;;;;;;;15.45;8.83;;;;;;;11.80;70.53;97166.30;1765132;81;21415;-83
2021/09/24 07:54:24;;;;;;;19.60;9.10;;;;;;;11.82;71.74;97165.74;1768865;81;20973;-83
2021/09/24 07:56:52;;;;;;;12.07;8.88;;;;;;;11.84;71.31;97165.22;1779268;80;21028;-83
2021/09/24 07:59:20;;;;;;;12.88;8.08;;;;;;;11.84;71.74;97167.39;1779189;81;21035;-83
2021/09/24 08:01:47;;;;;;;17.95;9.98;;;;;;;11.84;71.42;97175.84;1779293;81;21001;-83
2021/09/24 08:04:13;;;;;;;17.65;10.18;;;;;;;11.80;70.62;97183.09;1769216;81;21427;-83
2021/09/24 08:06:40;;;;;;;15.25;10.20;;;;;;;11.76;70.81;97186.83;1753341;82;21036;-83
2021/09/24 08:09:07;;;;;;;16.80;10.82;;;;;;;11.73;71.05;97179.88;1753351;82;20996;-83
2021/09/24 08:11:34;;;;;;;20.48;12.37;;;;;;;11.72;70.78;97185.25;1746837;82;21408;-82
2021/09/24 08:14:04;;;;;;;18.00;11.25;;;;;;;11.71;70.81;97190.17;1753249;81;21033;-83
2021/09/24 08:16:31;;;;;;;16.30;11.20;;;;;;;11.67;70.94;97193.41;1754271;81;20975;-83
2021/09/24 08:18:57;;;;;;;18.52;10.35;;;;;;;11.64;70.77;97196.23;1754447;81;20955;-83
2021/09/24 08:21:24;;;;;;;21.45;10.85;;;;;;;11.64;71.17;97187.39;1777375;81;21025;-83
2021/09/24 08:23:53;;;;;;;16.82;11.33;;;;;;;11.60;70.92;97182.70;1771520;81;21076;-83
2021/09/24 08:26:22;;;;;;;16.85;11.12;;;;;;;11.59;71.31;97179.17;1756776;81;21008;-83
2021/09/24 08:28:49;;;;;;;22.15;11.10;;;;;;;11.59;71.12;97173.03;1753083;80;21444;-83
2021/09/24 08:31:16;;;;;;;15.93;10.23;;;;;;;11.59;71.31;97173.03;1736666;83;21035;-83
2021/09/24 08:33:46;;;;;;;17.62;10.10;;;;;;;11.59;71.28;97180.50;1753152;81;21005;-83
2021/09/24 08:36:13;;;;;;;17.32;9.88;;;;;;;11.61;71.47;97179.11;1753744;80;21464;-83
2021/09/24 08:38:39;;;;;;;18.77;9.45;;;;;;;11.60;71.42;97188.02;1757097;81;21382;-83
2021/09/24 08:41:06;;;;;;;19.85;9.50;;;;;;;11.60;71.42;97188.88;1757077;82;20945;-83
2021/09/24 08:43:34;;;;;;;14.95;10.03;;;;;;;11.60;71.56;97180.92;1757082;82;21497;-83
2021/09/24 08:46:01;;;;;;;15.40;10.05;;;;;;;11.59;71.45;97182.31;1746125;81;21054;-83
2021/09/24 08:48:30;;;;;;;20.40;9.90;;;;;;;11.59;71.54;97179.17;1732884;80;21557;-83
2021/09/24 08:50:57;;;;;;;22.37;9.70;;;;;;;11.60;71.55;97174.73;1777505;81;20994;-83
2021/09/24 08:53:24;;;;;;;18.75;11.50;;;;;;;11.58;71.74;97173.94;1777391;81;21058;-83
2021/09/24 08:55:51;;;;;;;21.10;11.70;;;;;;;11.58;71.86;97171.28;1761469;81;21002;-83
2021/09/24 08:58:19;;;;;;;20.85;10.18;;;;;;;11.59;71.80;97174.35;1777319;80;20922;-83
2021/09/24 09:00:47;;;;;;;15.90;9.35;;;;;;;11.58;71.82;97173.94;1746984;81;21037;-83
2021/09/24 09:03:18;;;;;;;14.25;9.00;;;;;;;11.59;71.91;97179.66;1746766;82;21468;-83
2021/09/24 09:05:56;;;;;;;15.15;8.35;;;;;;;11.59;71.88;97180.98;1746682;82;21491;-83
2021/09/24 09:08:30;;;;;;;13.45;8.95;;;;;;;11.57;72.02;97190.34;1747167;81;20967;-84
2021/09/24 09:11:14;;;;;;;17.75;8.75;;;;;;;11.58;71.99;97198.69;1747073;82;21014;-84
2021/09/24 09:13:50;;;;;;;15.08;8.00;;;;;;;11.58;72.12;97203.13;1747415;82;21038;-85
2021/09/24 09:16:31;;;;;;;12.80;8.70;;;;;;;11.55;72.14;97201.47;1748613;82;21025;-85
2021/09/24 09:19:11;;;;;;;16.97;8.78;;;;;;;11.55;72.07;97204.13;1749741;80;21396;-84
2021/09/24 09:21:47;;;;;;;12.47;8.35;;;;;;;11.53;72.23;97209.98;1751955;82;20960;-84
2021/09/24 09:24:23;;;;;;;13.58;8.23;;;;;;;11.52;72.22;97211.37;1758075;81;21052;-83
2021/09/24 09:27:19;;;;;;;16.42;8.53;;;;;;;11.51;72.23;97218.50;1758347;81;21097;-83
2021/09/24 09:30:15;;;;;;;11.90;7.87;;;;;;;11.54;72.39;97221.48;1766493;81;20984;-84
2021/09/24 09:32:42;;;;;;;12.53;7.42;;;;;;;11.54;72.58;97218.82;1764433;81;20980;-84
2021/09/24 09:35:11;;;;;;;14.10;8.48;;;;;;;11.53;72.72;97222.38;1765129;81;21055;-84
2021/09/24 09:37:39;;;;;;;10.50;7.47;;;;;;;11.57;72.97;97226.63;1765240;81;20988;-84
2021/09/24 09:40:13;;;;;;;10.38;7.58;;;;;;;11.60;73.17;97226.48;1765089;81;21016;-84
2021/09/24 09:42:43;;;;;;;12.25;8.00;;;;;;;11.63;73.44;97227.69;1764832;80;21016;-83
2021/09/24 09:45:14;;;;;;;13.72;7.45;;;;;;;11.66;73.45;97224.88;1765208;81;21093;-83
2021/09/24 09:47:45;;;;;;;14.50;8.10;;;;;;;11.70;73.31;97226.45;1748123;81;20964;-83
2021/09/24 09:50:22;;;;;;;12.58;7.75;;;;;;;11.72;73.52;97236.52;1753226;81;20984;-83
2021/09/24 09:53:10;;;;;;;15.13;8.60;;;;;;;11.75;73.75;97234.19;1765136;81;20960;-85
2021/09/24 09:55:42;;;;;;;14.40;8.58;;;;;;;11.76;73.57;97233.28;1748439;82;21119;-85
2021/09/24 09:58:11;;;;;;;15.38;8.80;;;;;;;11.75;73.21;97234.19;1768089;81;20963;-84
2021/09/24 10:01:00;;;;;;;18.80;9.18;;;;;;;11.73;73.12;97223.67;1758057;81;21030;-85
2021/09/24 10:03:35;;;;;;;13.28;8.53;;;;;;;11.69;73.19;97220.76;1744799;82;21006;-85
2021/09/24 10:06:03;;;;;;;14.55;8.70;;;;;;;11.66;73.10;97209.44;1744805;82;21508;-84
2021/09/24 10:08:33;;;;;;;16.55;9.18;;;;;;;11.69;73.24;97208.81;1744909;82;21034;-85
2021/09/24 10:11:05;;;;;;;16.50;11.05;;;;;;;11.73;73.00;97214.84;1744843;82;21057;-85
2021/09/24 10:13:37;;;;;;;35.50;21.73;;;;;;;11.77;72.97;97219.07;1763112;80;20996;-86
2021/09/24 10:16:05;;;;;;;14.78;9.03;;;;;;;11.86;72.84;97209.34;1765799;81;20957;-86
2021/09/24 10:18:33;;;;;;;15.35;8.75;;;;;;;11.96;72.52;97207.09;1767409;80;21003;-85
2021/09/24 10:21:00;;;;;;;15.03;8.33;;;;;;;12.07;72.12;97213.72;1775172;81;20927;-86
2021/09/24 10:23:26;;;;;;;13.93;9.45;;;;;;;12.18;71.99;97211.42;1773828;81;21019;-86
2021/09/24 10:26:00;;;;;;;15.85;10.05;;;;;;;12.26;71.24;97203.91;1744862;82;21085;-86
2021/09/24 10:28:34;;;;;;;14.28;8.90;;;;;;;12.35;71.69;97199.97;1750413;82;21020;-86
2021/09/24 10:31:02;;;;;;;13.57;9.27;;;;;;;12.53;71.81;97195.97;1750665;82;21027;-86
2021/09/24 10:33:52;;;;;;;12.55;8.75;;;;;;;12.64;70.91;97200.30;1748077;82;20991;-86
2021/09/24 10:36:42;;;;;;;12.20;8.40;;;;;;;12.81;71.11;97201.22;1750507;82;21417;-86
2021/09/24 10:39:33;;;;;;;12.03;8.75;;;;;;;12.99;70.62;97202.06;1757082;81;21044;-86
2021/09/24 10:42:31;;;;;;;12.50;8.78;;;;;;;13.25;69.90;97209.62;1750849;81;21027;-86
2021/09/24 10:45:15;;;;;;;13.28;8.38;;;;;;;13.51;69.00;97205.59;1756259;81;21048;-86
2021/09/24 10:47:55;;;;;;;12.15;7.83;;;;;;;13.94;67.27;97216.13;1756280;81;20978;-86
2021/09/24 10:50:37;;;;;;;13.03;8.18;;;;;;;14.34;68.66;97204.56;1739620;82;21038;-86
2021/09/24 10:53:23;;;;;;;13.10;8.25;;;;;;;14.53;67.69;97202.14;1750931;82;20981;-84
2021/09/24 10:55:58;;;;;;;15.60;9.35;;;;;;;14.73;66.71;97194.77;1757232;82;21020;-84
2021/09/24 10:58:33;;;;;;;10.68;8.33;;;;;;;14.88;65.61;97187.24;1710144;83;21443;-83
2021/09/24 11:01:11;;;;;;;11.70;7.55;;;;;;;14.95;65.69;97191.70;1710023;84;21050;-84
2021/09/24 11:03:58;;;;;;;11.33;8.20;;;;;;;15.13;63.89;97196.42;1750443;82;21068;-84
2021/09/24 11:06:41;;;;;;;12.82;8.30;;;;;;;15.41;61.85;97193.86;1759393;82;21414;-84
2021/09/24 11:09:12;;;;;;;15.25;8.18;;;;;;;15.34;60.54;97194.71;1759414;81;21000;-83
2021/09/24 11:11:44;;;;;;;12.90;8.10;;;;;;;15.40;63.12;97190.31;1758403;81;21035;-84
2021/09/24 11:14:28;;;;;;;11.38;8.45;;;;;;;15.67;60.92;97204.24;1757844;81;21007;-84
2021/09/24 11:16:56;;;;;;;12.85;8.70;;;;;;;15.74;62.92;97198.01;1740043;82;21443;-84
2021/09/24 11:19:44;;;;;;;11.57;8.65;;;;;;;15.75;62.77;97201.55;1741834;81;21451;-82
2021/09/24 11:22:19;;;;;;;14.75;8.83;;;;;;;15.79;61.19;97204.41;1739348;82;21015;-82
2021/09/24 11:25:00;;;;;;;12.23;8.70;;;;;;;15.62;61.76;97206.34;1739536;82;21451;-82
2021/09/24 11:27:44;;;;;;;12.75;8.40;;;;;;;15.50;62.40;97199.09;1739147;81;21001;-81
2021/09/24 11:30:21;;;;;;;18.17;9.15;;;;;;;15.42;60.58;97206.25;1737805;83;21074;-82
2021/09/24 11:32:55;;;;;;;13.20;8.65;;;;;;;15.35;61.78;97213.77;1737578;83;21030;-82
2021/09/24 11:35:38;;;;;;;15.93;9.40;;;;;;;15.24;61.81;97208.25;1737705;83;21015;-83
2021/09/24 11:38:18;;;;;;;14.38;9.53;;;;;;;15.05;61.72;97212.03;1737861;82;21019;-82